createdAt,value
2019-04-26T00:01:35.593Z,7.95
2019-04-26T00:04:09.209Z,7.03
2019-04-26T00:06:41.780Z,7.75
2019-04-26T00:09:25.905Z,7.92
2019-04-26T00:12:25.638Z,8.35
2019-04-26T00:15:15.013Z,7.92
2019-04-26T00:17:50.417Z,8.43
2019-04-26T00:20:22.359Z,7.70
2019-04-26T00:22:54.393Z,7.80
2019-04-26T00:25:26.342Z,7.47
2019-04-26T00:27:58.007Z,7.78
2019-04-26T00:30:29.902Z,8.03
2019-04-26T00:33:04.625Z,7.87
2019-04-26T00:35:46.924Z,8.53
2019-04-26T00:38:10.028Z,8.23
2019-04-26T00:40:42.291Z,7.85
2019-04-26T00:43:14.497Z,8.93
2019-04-26T00:45:46.640Z,8.17
2019-04-26T00:48:19.385Z,7.47
2019-04-26T00:50:53.787Z,8.15
2019-04-26T00:53:27.253Z,8.83
2019-04-26T00:56:00.034Z,7.65
2019-04-26T00:58:33.632Z,7.33
2019-04-26T01:01:05.809Z,7.87
2019-04-26T01:03:37.788Z,7.97
2019-04-26T01:06:11.960Z,7.80
2019-04-26T01:08:43.376Z,7.80
2019-04-26T01:11:16.282Z,7.00
2019-04-26T01:13:48.499Z,6.97
2019-04-26T01:16:20.450Z,7.42
2019-04-26T01:18:52.945Z,7.50
2019-04-26T01:21:27.341Z,7.90
2019-04-26T01:24:01.820Z,7.90
2019-04-26T01:26:35.525Z,7.17
2019-04-26T01:29:09.985Z,8.08
2019-04-26T01:31:49.087Z,8.18
2019-04-26T01:34:22.040Z,8.45
2019-04-26T01:36:56.331Z,8.03
2019-04-26T01:39:28.124Z,7.45
2019-04-26T01:42:15.746Z,7.90
2019-04-26T01:45:05.915Z,8.58
2019-04-26T01:47:38.654Z,8.35
2019-04-26T01:50:12.023Z,8.90
2019-04-26T01:52:45.787Z,7.90
2019-04-26T01:55:18.371Z,9.03
2019-04-26T01:57:50.316Z,8.40
2019-04-26T02:00:41.345Z,8.53
2019-04-26T02:03:21.561Z,8.18
2019-04-26T02:05:56.170Z,8.03
2019-04-26T02:08:28.268Z,7.75
2019-04-26T02:11:00.217Z,8.27
2019-04-26T02:13:33.066Z,8.08
2019-04-26T02:16:05.335Z,7.75
2019-04-26T02:18:37.431Z,7.80
2019-04-26T02:21:27.990Z,7.58
2019-04-26T02:24:11.744Z,8.55
2019-04-26T02:26:46.762Z,8.10
2019-04-26T02:29:26.643Z,7.70
2019-04-26T02:32:04.082Z,9.80
2019-04-26T02:34:38.394Z,8.75
2019-04-26T02:37:13.284Z,7.60
2019-04-26T02:39:45.523Z,8.13
2019-04-26T02:42:28.673Z,7.95
2019-04-26T02:48:15.971Z,7.67
2019-04-26T02:50:53.792Z,8.35
2019-04-26T02:54:15.285Z,9.43
2019-04-26T02:56:49.494Z,9.00
2019-04-26T02:59:37.734Z,8.80
2019-04-26T03:02:13.207Z,8.08
2019-04-26T03:04:47.792Z,8.68
2019-04-26T03:07:26.827Z,8.65
2019-04-26T03:10:00.158Z,8.13
2019-04-26T03:12:35.820Z,8.25
2019-04-26T03:15:32.069Z,8.78
2019-04-26T03:18:24.674Z,8.78
2019-04-26T03:21:01.118Z,8.80
2019-04-26T03:23:57.003Z,9.05
2019-04-26T03:26:53.168Z,9.88
2019-04-26T03:29:53.065Z,8.98
2019-04-26T03:33:08.318Z,9.50
2019-04-26T03:36:18.554Z,9.53
2019-04-26T03:39:27.994Z,8.60
2019-04-26T03:42:40.147Z,9.28
2019-04-26T03:45:21.582Z,9.40
2019-04-26T03:48:21.495Z,9.53
2019-04-26T03:51:05.716Z,9.73
2019-04-26T03:53:51.027Z,9.33
2019-04-26T03:57:02.908Z,9.85
2019-04-26T04:00:14.178Z,9.65
2019-04-26T04:03:47.968Z,9.03
2019-04-26T04:06:26.759Z,10.03
2019-04-26T04:09:05.132Z,9.58
2019-04-26T04:11:49.702Z,9.90
2019-04-26T04:14:44.054Z,11.00
2019-04-26T04:17:28.422Z,13.53
2019-04-26T04:20:26.740Z,15.08
2019-04-26T04:23:28.304Z,12.90
2019-04-26T04:26:02.605Z,10.60
2019-04-26T04:29:07.796Z,10.85
2019-04-26T04:31:45.727Z,10.72
2019-04-26T04:34:37.519Z,11.33
2019-04-26T04:37:11.879Z,10.30
2019-04-26T04:40:19.583Z,10.98
2019-04-26T04:43:07.297Z,9.75
2019-04-26T04:46:21.291Z,9.63
2019-04-26T04:52:13.806Z,9.43
2019-04-26T04:55:06.404Z,8.85
2019-04-26T04:57:38.742Z,10.13
2019-04-26T05:00:33.144Z,9.43
2019-04-26T05:03:45.266Z,9.70
2019-04-26T05:06:31.941Z,9.13
2019-04-26T05:09:16.862Z,8.93
2019-04-26T05:12:21.436Z,8.65
2019-04-26T05:15:54.998Z,9.55
2019-04-26T05:18:45.230Z,9.43
2019-04-26T05:21:46.926Z,9.23
2019-04-26T05:24:41.209Z,9.80
2019-04-26T05:27:57.183Z,15.63
2019-04-26T05:31:17.146Z,10.78
2019-04-26T05:34:42.733Z,9.35
2019-04-26T05:37:51.048Z,9.45
2019-04-26T05:41:09.063Z,10.50
2019-04-26T05:44:15.842Z,11.78
2019-04-26T05:48:05.355Z,12.98
2019-04-26T05:51:02.389Z,12.58
2019-04-26T05:54:15.670Z,10.35
2019-04-26T05:57:03.846Z,11.17
2019-04-26T05:59:53.524Z,11.05
2019-04-26T06:03:20.397Z,10.98
2019-04-26T06:06:20.243Z,9.65
2019-04-26T06:09:21.669Z,11.50
2019-04-26T06:12:05.392Z,10.20
2019-04-26T06:15:31.520Z,10.43
2019-04-26T06:18:42.029Z,8.38
2019-04-26T06:21:39.454Z,8.08
2019-04-26T06:24:40.165Z,8.10
2019-04-26T06:27:45.594Z,7.67
2019-04-26T06:30:22.601Z,9.00
2019-04-26T06:33:12.320Z,7.78
2019-04-26T06:35:48.083Z,7.40
2019-04-26T06:39:24.604Z,6.72
2019-04-26T06:42:17.857Z,6.83
2019-04-26T06:45:30.293Z,8.65
2019-04-26T06:48:17.430Z,7.78
2019-04-26T06:50:58.390Z,7.25
2019-04-26T06:54:06.054Z,8.63
2019-04-26T06:57:33.361Z,7.78
2019-04-26T07:00:20.238Z,8.53
2019-04-26T07:03:35.654Z,7.70
2019-04-26T07:06:08.856Z,7.05
2019-04-26T07:08:57.587Z,10.18
2019-04-26T07:12:22.406Z,12.88
2019-04-26T07:15:27.929Z,7.92
2019-04-26T07:18:32.022Z,10.18
2019-04-26T07:21:17.245Z,6.78
2019-04-26T07:24:55.047Z,7.08
2019-04-26T07:28:03.324Z,8.68
2019-04-26T07:30:38.470Z,7.58
2019-04-26T07:33:35.814Z,7.37
2019-04-26T07:36:33.626Z,7.70
2019-04-26T07:39:56.177Z,7.65
2019-04-26T07:43:01.837Z,7.53
2019-04-26T07:46:15.386Z,6.90
2019-04-26T07:49:20.161Z,7.28
2019-04-26T07:52:37.312Z,6.87
2019-04-26T07:55:30.895Z,6.60
2019-04-26T07:58:37.664Z,6.87
2019-04-26T08:01:45.373Z,7.08
2019-04-26T08:04:22.974Z,7.05
2019-04-26T08:07:02.366Z,6.85
2019-04-26T08:09:37.151Z,7.85
2019-04-26T08:12:12.245Z,7.08
2019-04-26T08:15:06.015Z,7.22
2019-04-26T08:17:57.377Z,6.58
2019-04-26T08:20:48.217Z,6.50
2019-04-26T08:23:39.188Z,6.35
2019-04-26T08:26:03.654Z,6.92
2019-04-26T08:28:38.048Z,6.55
2019-04-26T08:31:15.442Z,7.28
2019-04-26T08:33:54.096Z,7.08
2019-04-26T08:36:30.363Z,7.30
2019-04-26T08:39:03.127Z,6.08
2019-04-26T08:41:39.157Z,7.12
2019-04-26T08:44:21.400Z,7.35
2019-04-26T08:47:21.004Z,7.03
2019-04-26T08:49:55.943Z,6.22
2019-04-26T08:52:31.387Z,7.28
2019-04-26T08:55:06.117Z,6.05
2019-04-26T08:57:42.566Z,5.78
2019-04-26T09:00:48.245Z,5.00
2019-04-26T09:03:47.344Z,4.80
2019-04-26T09:06:42.552Z,5.85
2019-04-26T09:09:24.590Z,5.30
2019-04-26T09:12:03.804Z,5.60
2019-04-26T09:14:35.194Z,5.33
2019-04-26T09:17:08.189Z,5.25
2019-04-26T09:19:40.147Z,5.07
2019-04-26T09:22:17.244Z,5.03
2019-04-26T09:25:06.119Z,4.80
2019-04-26T09:27:42.809Z,4.75
2019-04-26T09:30:33.139Z,4.45
2019-04-26T09:33:12.743Z,4.80
2019-04-26T09:35:44.643Z,4.80
2019-04-26T09:38:16.119Z,4.70
2019-04-26T09:40:47.949Z,4.47
2019-04-26T09:43:44.447Z,5.37
2019-04-26T09:46:34.130Z,4.75
2019-04-26T09:49:31.083Z,4.58
2019-04-26T09:52:04.178Z,5.12
2019-04-26T09:54:36.264Z,5.75
2019-04-26T09:57:08.345Z,5.00
2019-04-26T09:59:41.188Z,5.03
2019-04-26T10:02:14.852Z,4.33
2019-04-26T10:04:46.308Z,4.78
2019-04-26T10:07:18.081Z,4.80
2019-04-26T10:09:51.743Z,4.20
2019-04-26T10:12:32.508Z,4.62
2019-04-26T10:15:29.922Z,5.03
2019-04-26T10:18:01.985Z,5.12
2019-04-26T10:20:33.843Z,4.62
2019-04-26T10:23:05.547Z,4.50
2019-04-26T10:25:37.652Z,3.83
2019-04-26T10:28:11.795Z,4.42
2019-04-26T10:30:43.941Z,3.90
2019-04-26T10:33:15.873Z,4.65
2019-04-26T10:35:47.597Z,4.17
2019-04-26T10:38:23.238Z,3.98
2019-04-26T10:40:52.556Z,3.80
2019-04-26T10:43:24.606Z,5.77
2019-04-26T10:45:56.926Z,5.45
2019-04-26T10:48:28.831Z,3.77
2019-04-26T10:51:03.180Z,3.85
2019-04-26T10:53:50.508Z,3.83
2019-04-26T10:56:46.455Z,3.45
2019-04-26T10:59:27.976Z,3.50
2019-04-26T11:02:00.186Z,3.92
2019-04-26T11:04:37.349Z,4.22
2019-04-26T11:07:08.366Z,4.62
2019-04-26T11:09:41.115Z,3.90
2019-04-26T11:14:45.618Z,3.58
2019-04-26T11:17:17.912Z,3.50
2019-04-26T11:19:49.688Z,4.25
2019-04-26T11:22:28.995Z,4.33
2019-04-26T11:24:55.148Z,5.33
2019-04-26T11:27:26.932Z,4.15
2019-04-26T11:30:00.021Z,3.83
2019-04-26T11:32:33.143Z,3.45
2019-04-26T11:35:10.767Z,3.95
2019-04-26T11:37:42.643Z,4.20
2019-04-26T11:40:15.727Z,3.43
2019-04-26T11:42:47.455Z,3.52
2019-04-26T11:45:19.351Z,3.62
2019-04-26T11:47:56.280Z,3.55
2019-04-26T11:50:24.980Z,3.15
2019-04-26T11:52:57.123Z,3.90
2019-04-26T11:55:29.812Z,3.40
2019-04-26T11:58:02.029Z,3.77
2019-04-26T12:00:38.925Z,3.17
2019-04-26T12:03:10.853Z,3.42
2019-04-26T12:05:51.467Z,3.80
2019-04-26T12:08:27.450Z,3.52
2019-04-26T12:10:59.657Z,3.83
2019-04-26T12:13:31.455Z,3.10
2019-04-26T12:16:03.571Z,3.13
2019-04-26T12:18:35.263Z,3.20
2019-04-26T12:21:07.307Z,2.83
2019-04-26T12:23:39.615Z,3.40
2019-04-26T12:26:11.452Z,2.77
2019-04-26T12:28:43.487Z,3.90
2019-04-26T12:31:15.627Z,3.30
2019-04-26T12:33:47.644Z,2.95
2019-04-26T12:36:19.997Z,2.87
2019-04-26T12:38:51.842Z,3.02
2019-04-26T12:41:39.520Z,3.20
2019-04-26T12:43:59.590Z,2.85
2019-04-26T12:46:59.391Z,2.90
2019-04-26T12:49:29.926Z,3.08
2019-04-26T12:52:01.763Z,4.05
2019-04-26T12:54:34.399Z,2.83
2019-04-26T12:57:06.913Z,3.70
2019-04-26T12:59:44.326Z,3.45
2019-04-26T13:02:12.214Z,3.30
2019-04-26T13:04:44.751Z,3.17
2019-04-26T13:07:23.864Z,3.27
2019-04-26T13:10:10.468Z,3.02
2019-04-26T13:12:56.307Z,2.60
2019-04-26T13:16:09.906Z,2.92
2019-04-26T13:18:45.421Z,3.35
2019-04-26T13:21:15.068Z,2.90
2019-04-26T13:23:48.279Z,3.08
2019-04-26T13:26:20.118Z,3.20
2019-04-26T13:28:52.526Z,3.75
2019-04-26T13:31:31.409Z,4.03
2019-04-26T13:34:02.734Z,4.00
2019-04-26T13:36:31.638Z,3.05
2019-04-26T13:39:03.573Z,2.67
2019-04-26T13:41:38.631Z,3.85
2019-04-26T13:44:10.345Z,4.12
2019-04-26T13:46:58.874Z,3.42
2019-04-26T13:49:48.295Z,3.12
2019-04-26T13:52:20.538Z,3.12
2019-04-26T13:54:55.379Z,3.27
2019-04-26T13:57:25.486Z,2.85
2019-04-26T13:59:57.029Z,3.60
2019-04-26T14:02:29.423Z,2.55
2019-04-26T14:05:00.858Z,3.35
2019-04-26T14:07:32.654Z,3.12
2019-04-26T14:10:05.067Z,3.57
2019-04-26T14:12:37.337Z,2.80
2019-04-26T14:15:10.251Z,3.87
2019-04-26T14:17:42.274Z,3.40
2019-04-26T14:20:14.810Z,3.40
2019-04-26T14:23:23.570Z,2.85
2019-04-26T14:26:16.209Z,3.67
2019-04-26T14:28:48.224Z,3.45
2019-04-26T14:31:20.337Z,3.33
2019-04-26T14:33:52.009Z,3.12
2019-04-26T14:36:26.845Z,3.52
2019-04-26T14:39:05.611Z,3.27
2019-04-26T14:41:30.844Z,3.12
2019-04-26T14:44:14.640Z,3.43
2019-04-26T14:46:48.249Z,3.35
2019-04-26T14:49:09.518Z,2.92
2019-04-26T14:51:41.356Z,3.43
2019-04-26T14:54:12.939Z,3.37
2019-04-26T14:56:52.397Z,3.40
2019-04-26T14:59:44.398Z,3.10
2019-04-26T15:02:32.922Z,3.62
2019-04-26T15:05:26.946Z,3.08
2019-04-26T15:07:59.603Z,3.30
2019-04-26T15:10:45.889Z,2.80
2019-04-26T15:13:20.038Z,3.80
2019-04-26T15:15:46.301Z,3.50
2019-04-26T15:18:17.747Z,3.10
2019-04-26T15:20:49.339Z,2.87
2019-04-26T15:23:23.866Z,3.50
2019-04-26T15:25:54.630Z,3.55
2019-04-26T15:28:26.086Z,3.60
2019-04-26T15:30:58.039Z,4.42
2019-04-26T15:33:30.260Z,3.10
2019-04-26T15:36:02.328Z,3.30
2019-04-26T15:38:41.364Z,3.00
2019-04-26T15:41:18.435Z,7.28
2019-04-26T15:44:02.629Z,3.90
2019-04-26T15:46:53.813Z,4.17
2019-04-26T15:49:44.143Z,5.03
2019-04-26T15:52:16.183Z,7.90
2019-04-26T15:54:48.297Z,10.30
2019-04-26T15:57:20.330Z,7.60
2019-04-26T15:59:54.345Z,4.72
2019-04-26T16:02:26.593Z,3.52
2019-04-26T16:04:58.515Z,5.10
2019-04-26T16:07:30.555Z,4.25
2019-04-26T16:10:02.186Z,4.37
2019-04-26T16:12:34.974Z,3.77
2019-04-26T16:15:11.419Z,4.00
2019-04-26T16:17:41.305Z,4.30
2019-04-26T16:20:13.624Z,3.77
2019-04-26T16:22:48.922Z,2.83
2019-04-26T16:25:20.066Z,3.72
2019-04-26T16:28:10.520Z,3.50
2019-04-26T16:30:53.192Z,2.90
2019-04-26T16:33:33.101Z,3.70
2019-04-26T16:36:05.398Z,2.95
2019-04-26T16:38:36.273Z,3.58
2019-04-26T16:41:09.063Z,3.58
2019-04-26T16:43:52.238Z,4.12
2019-04-26T16:46:20.056Z,3.27
2019-04-26T16:48:47.938Z,4.28
2019-04-26T16:51:23.209Z,5.60
2019-04-26T16:54:06.668Z,5.78
2019-04-26T16:56:28.735Z,6.35
2019-04-26T16:59:03.310Z,5.33
2019-04-26T17:01:38.125Z,4.58
2019-04-26T17:04:11.298Z,4.40
2019-04-26T17:06:44.926Z,3.95
2019-04-26T17:09:15.392Z,3.37
2019-04-26T17:11:46.868Z,3.87
2019-04-26T17:14:18.721Z,3.65
2019-04-26T17:16:53.547Z,4.10
2019-04-26T17:19:25.497Z,4.95
2019-04-26T17:22:10.197Z,4.97
2019-04-26T17:25:24.409Z,5.47
2019-04-26T17:27:54.143Z,5.40
2019-04-26T17:30:26.614Z,4.00
2019-04-26T17:32:58.461Z,4.92
2019-04-26T17:35:30.117Z,4.15
2019-04-26T17:38:04.985Z,3.70
2019-04-26T17:40:36.686Z,4.28
2019-04-26T17:43:09.789Z,4.00
2019-04-26T17:45:44.241Z,4.05
2019-04-26T17:48:16.307Z,4.10
2019-04-26T17:50:48.295Z,3.37
2019-04-26T17:55:54.773Z,4.28
2019-04-26T17:58:30.961Z,4.30
2019-04-26T18:01:02.859Z,4.22
2019-04-26T18:03:35.037Z,4.25
2019-04-26T18:06:09.595Z,3.90
2019-04-26T18:08:46.064Z,3.80
2019-04-26T18:11:19.535Z,4.62
2019-04-26T18:13:51.149Z,4.50
2019-04-26T18:16:22.436Z,4.00
2019-04-26T18:19:07.974Z,4.20
2019-04-26T18:21:56.570Z,4.10
2019-04-26T18:24:27.538Z,4.17
2019-04-26T18:27:00.581Z,4.15
2019-04-26T18:29:33.701Z,3.55
2019-04-26T18:32:05.634Z,4.28
2019-04-26T18:34:40.504Z,3.72
2019-04-26T18:37:10.886Z,4.40
2019-04-26T18:39:44.349Z,4.47
2019-04-26T18:42:16.142Z,4.83
2019-04-26T18:44:48.919Z,4.42
2019-04-26T18:47:27.616Z,4.72
2019-04-26T18:49:59.373Z,4.65
2019-04-26T18:52:33.711Z,4.65
2019-04-26T18:55:16.329Z,4.20
2019-04-26T18:57:54.714Z,3.92
2019-04-26T19:00:29.061Z,4.28
2019-04-26T19:03:00.878Z,3.85
2019-04-26T19:05:33.856Z,4.47
2019-04-26T19:08:07.668Z,4.73
2019-04-26T19:10:40.613Z,4.70
2019-04-26T19:13:26.567Z,4.72
2019-04-26T19:16:23.263Z,4.92
2019-04-26T19:19:26.354Z,4.33
2019-04-26T19:22:03.262Z,4.15
2019-04-26T19:24:34.509Z,4.22
2019-04-26T19:29:38.404Z,4.03
2019-04-26T19:32:11.763Z,4.35
2019-04-26T19:34:43.709Z,5.08
2019-04-26T19:37:15.552Z,6.67
2019-04-26T19:39:47.443Z,6.03
2019-04-26T19:42:18.933Z,5.95
2019-04-26T19:45:09.434Z,5.28
2019-04-26T19:47:44.165Z,5.53
2019-04-26T19:50:48.736Z,5.72
2019-04-26T19:53:47.255Z,6.20
2019-04-26T19:56:27.791Z,5.62
2019-04-26T19:58:58.947Z,6.10
2019-04-26T20:01:30.969Z,6.37
2019-04-26T20:04:02.884Z,5.92
2019-04-26T20:06:34.884Z,6.40
2019-04-26T20:09:07.648Z,5.97
2019-04-26T20:11:42.133Z,6.30
2019-04-26T20:16:44.804Z,7.15
2019-04-26T20:19:18.011Z,7.25
2019-04-26T20:21:50.595Z,7.15
2019-04-26T20:24:23.116Z,6.87
2019-04-26T20:26:54.967Z,7.45
2019-04-26T20:29:26.493Z,7.58
2019-04-26T20:32:07.438Z,7.08
2019-04-26T20:34:39.355Z,6.92
2019-04-26T20:37:11.174Z,6.92
2019-04-26T20:39:42.803Z,6.60
2019-04-26T20:42:14.685Z,7.20
2019-04-26T20:44:50.977Z,7.53
2019-04-26T20:47:21.580Z,6.62
2019-04-26T20:50:00.725Z,7.92
2019-04-26T20:52:26.954Z,7.53
2019-04-26T20:54:58.574Z,8.05
2019-04-26T20:57:31.349Z,7.85
2019-04-26T21:00:05.492Z,7.75
2019-04-26T21:02:38.620Z,7.35
2019-04-26T21:05:14.164Z,7.17
2019-04-26T21:07:49.205Z,7.03
2019-04-26T21:10:21.983Z,6.53
2019-04-26T21:12:54.844Z,6.80
2019-04-26T21:15:25.522Z,6.22
2019-04-26T21:18:01.354Z,5.72
2019-04-26T21:20:32.753Z,6.22
2019-04-26T21:23:03.917Z,6.50
2019-04-26T21:25:53.454Z,5.97
2019-04-26T21:28:38.125Z,6.15
2019-04-26T21:31:19.104Z,6.10
2019-04-26T21:34:07.989Z,6.33
2019-04-26T21:37:03.421Z,6.33
2019-04-26T21:39:54.367Z,6.60
2019-04-26T21:42:26.223Z,6.15
2019-04-26T21:44:58.343Z,6.22
2019-04-26T21:47:31.962Z,6.40
2019-04-26T21:50:04.269Z,6.53
2019-04-26T21:52:35.918Z,6.90
2019-04-26T21:55:08.865Z,6.83
2019-04-26T21:57:40.527Z,6.33
2019-04-26T22:00:43.770Z,7.15
2019-04-26T22:03:17.459Z,7.30
2019-04-26T22:05:49.958Z,7.45
2019-04-26T22:08:25.861Z,7.85
2019-04-26T22:10:57.633Z,7.30
2019-04-26T22:13:47.126Z,6.92
2019-04-26T22:16:34.456Z,6.87
2019-04-26T22:19:23.982Z,7.80
2019-04-26T22:22:25.075Z,7.10
2019-04-26T22:24:57.658Z,8.05
2019-04-26T22:27:29.265Z,8.37
2019-04-26T22:30:00.591Z,8.63
2019-04-26T22:32:33.368Z,7.92
2019-04-26T22:35:05.019Z,10.48
2019-04-26T22:37:36.901Z,8.90
2019-04-26T22:40:10.500Z,9.03
2019-04-26T22:42:44.008Z,8.50
2019-04-26T22:45:44.195Z,9.63
2019-04-26T22:48:25.697Z,7.72
2019-04-26T22:50:59.483Z,8.13
2019-04-26T22:53:32.849Z,7.37
2019-04-26T22:56:05.049Z,7.90
2019-04-26T22:58:36.889Z,8.00
2019-04-26T23:01:08.604Z,8.63
2019-04-26T23:03:41.086Z,8.03
2019-04-26T23:06:15.329Z,9.20
2019-04-26T23:08:47.415Z,8.20
2019-04-26T23:11:19.248Z,7.58
2019-04-26T23:14:03.372Z,7.28
2019-04-26T23:17:03.745Z,7.67
2019-04-26T23:19:54.190Z,8.23
2019-04-26T23:22:26.339Z,6.78
2019-04-26T23:24:58.082Z,8.63
2019-04-26T23:27:29.913Z,7.78
2019-04-26T23:30:01.352Z,7.67
2019-04-26T23:32:33.889Z,7.42
2019-04-26T23:35:06.219Z,8.45
2019-04-26T23:37:38.187Z,9.10
2019-04-26T23:40:10.223Z,8.48
2019-04-26T23:42:43.547Z,8.05
2019-04-26T23:45:15.148Z,8.93
2019-04-26T23:47:46.653Z,8.68
2019-04-26T23:50:18.688Z,8.90
2019-04-26T23:52:50.471Z,9.30
2019-04-26T23:55:23.655Z,8.60
2019-04-26T23:57:55.227Z,8.65
